This is the latest recevied weather packets stored in our database for station/object vk4vs. If no packets are shown the sender has not sent any weather packets the latest 10 day(s).
| Time | Temp. | Humidity | Pressure | Rain* | Wind** | Luminosity | Snow |
|---|---|---|---|---|---|---|---|
| 1777991454 | 15° C | 96% | 1017.8 hPa | 0 mm | - | - | - |
| 1777989653 | 15° C | 96% | 1018.2 hPa | 0 mm | - | - | - |
| 1777987854 | 14.44° C | 97% | 1018.5 hPa | 0 mm | - | - | - |
| 1777986054 | 15° C | 97% | 1018.4 hPa | 0 mm | - | - | - |
| 1777984254 | 15° C | 96% | 1018.4 hPa | 0 mm | - | - | - |
| 1777982453 | 15.56° C | 95% | 1018.4 hPa | 0 mm | - | - | - |
| 1777980653 | 15.56° C | 92% | 1018.5 hPa | 0 mm | - | - | - |
| 1777978854 | 16.11° C | 89% | 1018.4 hPa | 0 mm | - | - | - |
| 1777977053 | 16.67° C | 87% | 1017.9 hPa | 0 mm | - | - | - |
| 1777975253 | 16.67° C | 87% | 1018.3 hPa | 0 mm | - | - | - |
| 1777973453 | 16.67° C | 85% | 1018.1 hPa | 0 mm | - | - | - |
| 1777971654 | 16.67° C | 83% | 1018 hPa | 0 mm | - | - | - |
| 1777969853 | 17.22° C | 83% | 1017.4 hPa | 0 mm | - | - | - |
| 1777968054 | 17.78° C | 81% | 1017.3 hPa | 0 mm | - | - | - |
| 1777966253 | 18.33° C | 77% | 1016.9 hPa | 0 mm | - | - | - |
| 1777964453 | 20° C | 70% | 1016.8 hPa | 0 mm | - | - | - |
| 1777962653 | 20° C | 68% | 1016.3 hPa | 0 mm | - | - | - |
| 1777960853 | 20.56° C | 66% | 1016.3 hPa | 0 mm | - | - | - |
| 1777959053 | 21.11° C | 64% | 1015.9 hPa | 0 mm | - | - | - |
| 1777957253 | 21.67° C | 62% | 1015.7 hPa | 0 mm | - | - | - |
| 1777955454 | 22.22° C | 62% | 1015.6 hPa | 0 mm | - | - | - |
| 1777953653 | 21.67° C | 64% | 1015.6 hPa | 0 mm | - | - | - |
| 1777951853 | 21.11° C | 64% | 1015.8 hPa | 0 mm | - | - | - |
| 1777950054 | 22.22° C | 62% | 1016 hPa | 0 mm | - | - | - |
| 1777948253 | 21.11° C | 65% | 1016.3 hPa | 0 mm | - | - | - |
* Rain latest hour (hover to see other rain measurements)
** Current wind speed in m/s (hover to see current wind gust speed)